SCO15QR EGPH-EGNS
Flight info
| Callsign | SCO15QR |
|---|---|
| Flight time | 0h 36m |
| Altitude | 18000 |
| Route | GOSAM P600 FENIK/N0388F190 L612 DCS/N0384F180 DCT IOM |
| Aircraft | A320/M-SDE3FGHIRWY/LB1 |
Departure
| Time | 2026-05-05 22:01 |
|---|---|
| Airport | Edinburgh Airport (EGPH) |
Arrival
| Time | 2026-05-05 22:37 |
|---|---|
| Airport | Isle of Man Airport (EGNS) |
| Time | Latitude | Longitude | Altitude | Speed | Heading |
|---|---|---|---|---|---|
| 2026-05-05 21:33 | 55.94754 | -3.36612 | 113 ft | 0 kts | 88° |
| 2026-05-05 21:52 | 55.94754 | -3.36609 | 112 ft | 0 kts | 88° |
| 2026-05-05 21:52 | 55.94753 | -3.36627 | 112 ft | 2 kts | 88° |
| 2026-05-05 21:52 | 55.94753 | -3.36642 | 111 ft | 0 kts | 88° |
| 2026-05-05 21:53 | 55.94753 | -3.36666 | 111 ft | 2 kts | 88° |
| 2026-05-05 21:53 | 55.94753 | -3.36684 | 112 ft | 0 kts | 86° |
| 2026-05-05 21:53 | 55.94752 | -3.36694 | 112 ft | 2 kts | 87° |
| 2026-05-05 21:53 | 55.94750 | -3.36724 | 112 ft | 3 kts | 60° |
| 2026-05-05 21:54 | 55.94739 | -3.36748 | 110 ft | 3 kts | 24° |
| 2026-05-05 21:54 | 55.94727 | -3.36755 | 111 ft | 0 kts | 1° |
| 2026-05-05 21:56 | 55.94728 | -3.36755 | 111 ft | 1 kts | 0° |
| 2026-05-05 21:56 | 55.94808 | -3.36774 | 112 ft | 6 kts | 11° |
| 2026-05-05 21:56 | 55.94859 | -3.36776 | 113 ft | 7 kts | 350° |
| 2026-05-05 21:57 | 55.94915 | -3.36907 | 112 ft | 14 kts | 253° |
| 2026-05-05 21:57 | 55.94871 | -3.37062 | 112 ft | 14 kts | 239° |
| 2026-05-05 21:57 | 55.94821 | -3.37212 | 112 ft | 14 kts | 239° |
| 2026-05-05 21:57 | 55.94770 | -3.37364 | 112 ft | 14 kts | 239° |
| 2026-05-05 21:58 | 55.94718 | -3.37515 | 113 ft | 14 kts | 239° |
| 2026-05-05 21:58 | 55.94666 | -3.37666 | 111 ft | 14 kts | 238° |
| 2026-05-05 21:58 | 55.94614 | -3.37818 | 113 ft | 19 kts | 239° |
| 2026-05-05 21:58 | 55.94537 | -3.38050 | 112 ft | 24 kts | 238° |
| 2026-05-05 21:59 | 55.94440 | -3.38330 | 110 ft | 28 kts | 239° |
| 2026-05-05 21:59 | 55.94330 | -3.38646 | 115 ft | 31 kts | 238° |
| 2026-05-05 21:59 | 55.94299 | -3.38869 | 115 ft | 6 kts | 326° |
| 2026-05-05 21:59 | 55.94314 | -3.38888 | 116 ft | 0 kts | 323° |
| 2026-05-05 22:00 | 55.94319 | -3.38895 | 116 ft | 3 kts | 323° |
| 2026-05-05 22:00 | 55.94365 | -3.38952 | 112 ft | 10 kts | 330° |
| 2026-05-05 22:00 | 55.94428 | -3.38926 | 114 ft | 10 kts | 47° |
| 2026-05-05 22:01 | 55.94561 | -3.38539 | 113 ft | 90 kts | 59° |
| 2026-05-05 22:01 | 55.95064 | -3.37032 | 216 ft | 180 kts | 61° |
| 2026-05-05 22:01 | 55.95759 | -3.34899 | 964 ft | 220 kts | 61° |
| 2026-05-05 22:01 | 55.96633 | -3.32332 | 1933 ft | 256 kts | 54° |
| 2026-05-05 22:02 | 55.97847 | -3.30116 | 3748 ft | 245 kts | 42° |
| 2026-05-05 22:02 | 55.99208 | -3.28275 | 4942 ft | 249 kts | 28° |
| 2026-05-05 22:02 | 56.00907 | -3.27676 | 5498 ft | 255 kts | 354° |
| 2026-05-05 22:02 | 56.02505 | -3.28987 | 5907 ft | 259 kts | 317° |
| 2026-05-05 22:03 | 56.03375 | -3.31772 | 6299 ft | 264 kts | 282° |
| 2026-05-05 22:03 | 56.03311 | -3.35057 | 6689 ft | 267 kts | 262° |
| 2026-05-05 22:03 | 56.02887 | -3.38290 | 7057 ft | 269 kts | 256° |
| 2026-05-05 22:03 | 56.02348 | -3.41510 | 7441 ft | 271 kts | 255° |
| 2026-05-05 22:04 | 56.01792 | -3.44726 | 7827 ft | 272 kts | 255° |
| 2026-05-05 22:04 | 56.01253 | -3.47975 | 8210 ft | 273 kts | 256° |
| 2026-05-05 22:04 | 56.00737 | -3.51251 | 8594 ft | 274 kts | 257° |
| 2026-05-05 22:04 | 56.00241 | -3.54549 | 9009 ft | 276 kts | 258° |
| 2026-05-05 22:05 | 55.99756 | -3.57872 | 9413 ft | 277 kts | 258° |
| 2026-05-05 22:05 | 55.99279 | -3.61216 | 9828 ft | 279 kts | 258° |
| 2026-05-05 22:05 | 55.98802 | -3.64585 | 10217 ft | 280 kts | 258° |
| 2026-05-05 22:05 | 55.98320 | -3.67964 | 10589 ft | 281 kts | 258° |
| 2026-05-05 22:06 | 55.97838 | -3.71333 | 10958 ft | 282 kts | 258° |
| 2026-05-05 22:06 | 55.97347 | -3.74749 | 11339 ft | 283 kts | 258° |
| 2026-05-05 22:06 | 55.96855 | -3.78156 | 11717 ft | 284 kts | 258° |
| 2026-05-05 22:06 | 55.96360 | -3.81572 | 12102 ft | 285 kts | 258° |
| 2026-05-05 22:07 | 55.95860 | -3.84999 | 12488 ft | 286 kts | 258° |
| 2026-05-05 22:07 | 55.95356 | -3.88442 | 12893 ft | 287 kts | 258° |
| 2026-05-05 22:07 | 55.94851 | -3.91899 | 13289 ft | 288 kts | 258° |
| 2026-05-05 22:07 | 55.94345 | -3.95367 | 13699 ft | 290 kts | 258° |
| 2026-05-05 22:08 | 55.93841 | -3.98855 | 14091 ft | 291 kts | 258° |
| 2026-05-05 22:08 | 55.93104 | -4.02166 | 14455 ft | 296 kts | 236° |
| 2026-05-05 22:08 | 55.91587 | -4.04696 | 14820 ft | 303 kts | 220° |
| 2026-05-05 22:08 | 55.89873 | -4.06892 | 15193 ft | 305 kts | 218° |
| 2026-05-05 22:09 | 55.88077 | -4.09049 | 15582 ft | 319 kts | 217° |
| 2026-05-05 22:09 | 55.86180 | -4.11288 | 15956 ft | 335 kts | 217° |
| 2026-05-05 22:09 | 55.84192 | -4.13641 | 16346 ft | 350 kts | 217° |
| 2026-05-05 22:09 | 55.82129 | -4.16103 | 16738 ft | 364 kts | 217° |
| 2026-05-05 22:10 | 55.79998 | -4.18670 | 17137 ft | 377 kts | 217° |
| 2026-05-05 22:10 | 55.77785 | -4.21318 | 17542 ft | 390 kts | 214° |
| 2026-05-05 22:10 | 55.75308 | -4.23474 | 17948 ft | 404 kts | 203° |
| 2026-05-05 22:10 | 55.72525 | -4.24744 | 18116 ft | 424 kts | 191° |
| 2026-05-05 22:11 | 55.69516 | -4.24873 | 18131 ft | 441 kts | 177° |
| 2026-05-05 22:11 | 55.66506 | -4.23723 | 18131 ft | 446 kts | 163° |
| 2026-05-05 22:11 | 55.63659 | -4.21493 | 18117 ft | 449 kts | 153° |
| 2026-05-05 22:11 | 55.60931 | -4.18778 | 18117 ft | 449 kts | 153° |
| 2026-05-05 22:12 | 55.58204 | -4.16090 | 18116 ft | 449 kts | 153° |
| 2026-05-05 22:12 | 55.55469 | -4.13417 | 18114 ft | 449 kts | 153° |
| 2026-05-05 22:12 | 55.52768 | -4.10797 | 18118 ft | 449 kts | 153° |
| 2026-05-05 22:12 | 55.49997 | -4.08110 | 18115 ft | 449 kts | 153° |
| 2026-05-05 22:13 | 55.47264 | -4.05460 | 18117 ft | 448 kts | 153° |
| 2026-05-05 22:13 | 55.44573 | -4.02850 | 18127 ft | 448 kts | 153° |
| 2026-05-05 22:13 | 55.41839 | -4.00198 | 18115 ft | 448 kts | 153° |
| 2026-05-05 22:13 | 55.39108 | -3.97552 | 18114 ft | 448 kts | 153° |
| 2026-05-05 22:14 | 55.36377 | -3.94909 | 18116 ft | 448 kts | 153° |
| 2026-05-05 22:14 | 55.33647 | -3.92274 | 18117 ft | 448 kts | 153° |
| 2026-05-05 22:14 | 55.30912 | -3.89641 | 18117 ft | 448 kts | 153° |
| 2026-05-05 22:14 | 55.28182 | -3.87017 | 18118 ft | 448 kts | 153° |
| 2026-05-05 22:15 | 55.25446 | -3.84393 | 18117 ft | 448 kts | 153° |
| 2026-05-05 22:15 | 55.22710 | -3.81771 | 18117 ft | 448 kts | 153° |
| 2026-05-05 22:15 | 55.19977 | -3.79151 | 18118 ft | 448 kts | 153° |
| 2026-05-05 22:15 | 55.17239 | -3.76530 | 18116 ft | 448 kts | 153° |
| 2026-05-05 22:16 | 55.14504 | -3.73919 | 18113 ft | 448 kts | 153° |
| 2026-05-05 22:16 | 55.11770 | -3.71311 | 18115 ft | 448 kts | 153° |
| 2026-05-05 22:16 | 55.09029 | -3.68702 | 18112 ft | 448 kts | 153° |
| 2026-05-05 22:16 | 55.06287 | -3.66100 | 18108 ft | 448 kts | 154° |
| 2026-05-05 22:17 | 55.03545 | -3.63504 | 18106 ft | 448 kts | 154° |
| 2026-05-05 22:17 | 55.00805 | -3.60916 | 18104 ft | 448 kts | 154° |
| 2026-05-05 22:17 | 54.98063 | -3.58331 | 18106 ft | 448 kts | 154° |
| 2026-05-05 22:17 | 54.95323 | -3.55749 | 18103 ft | 448 kts | 154° |
| 2026-05-05 22:18 | 54.92581 | -3.53166 | 18111 ft | 448 kts | 154° |
| 2026-05-05 22:18 | 54.89846 | -3.50592 | 18100 ft | 447 kts | 154° |
| 2026-05-05 22:18 | 54.87105 | -3.48017 | 18105 ft | 447 kts | 154° |
| 2026-05-05 22:18 | 54.84368 | -3.45451 | 18109 ft | 447 kts | 154° |
| 2026-05-05 22:19 | 54.81636 | -3.42892 | 18098 ft | 447 kts | 154° |
| 2026-05-05 22:19 | 54.78880 | -3.40375 | 18100 ft | 446 kts | 158° |
| 2026-05-05 22:19 | 54.75931 | -3.38906 | 18102 ft | 440 kts | 176° |
| 2026-05-05 22:19 | 54.72904 | -3.39107 | 18100 ft | 434 kts | 194° |
| 2026-05-05 22:20 | 54.70106 | -3.40893 | 18097 ft | 428 kts | 212° |
| 2026-05-05 22:20 | 54.67757 | -3.43964 | 17718 ft | 417 kts | 228° |
| 2026-05-05 22:20 | 54.65968 | -3.47785 | 17190 ft | 404 kts | 234° |
| 2026-05-05 22:20 | 54.64279 | -3.51585 | 16658 ft | 394 kts | 234° |
| 2026-05-05 22:21 | 54.62621 | -3.55310 | 16140 ft | 387 kts | 234° |
| 2026-05-05 22:21 | 54.60995 | -3.58947 | 15625 ft | 380 kts | 234° |
| 2026-05-05 22:21 | 54.59390 | -3.62517 | 15122 ft | 373 kts | 234° |
| 2026-05-05 22:21 | 54.57811 | -3.66013 | 14631 ft | 367 kts | 234° |
| 2026-05-05 22:22 | 54.56253 | -3.69447 | 14148 ft | 361 kts | 234° |
| 2026-05-05 22:22 | 54.54719 | -3.72823 | 13629 ft | 355 kts | 234° |
| 2026-05-05 22:22 | 54.53207 | -3.76143 | 13096 ft | 350 kts | 234° |
| 2026-05-05 22:22 | 54.51709 | -3.79432 | 12575 ft | 348 kts | 234° |
| 2026-05-05 22:23 | 54.50241 | -3.82658 | 12050 ft | 346 kts | 234° |
| 2026-05-05 22:23 | 54.48762 | -3.85901 | 11534 ft | 344 kts | 234° |
| 2026-05-05 22:23 | 54.47292 | -3.89120 | 11036 ft | 342 kts | 234° |
| 2026-05-05 22:23 | 54.45829 | -3.92317 | 10536 ft | 339 kts | 234° |
| 2026-05-05 22:24 | 54.44371 | -3.95499 | 10052 ft | 337 kts | 234° |
| 2026-05-05 22:24 | 54.42926 | -3.98649 | 9517 ft | 335 kts | 234° |
| 2026-05-05 22:24 | 54.41489 | -4.01772 | 8984 ft | 332 kts | 234° |
| 2026-05-05 22:24 | 54.40064 | -4.04866 | 8453 ft | 328 kts | 234° |
| 2026-05-05 22:25 | 54.38663 | -4.07905 | 7936 ft | 321 kts | 233° |
| 2026-05-05 22:25 | 54.37286 | -4.10891 | 7430 ft | 316 kts | 233° |
| 2026-05-05 22:25 | 54.35935 | -4.13818 | 6929 ft | 311 kts | 233° |
| 2026-05-05 22:25 | 54.34599 | -4.16708 | 6432 ft | 307 kts | 232° |
| 2026-05-05 22:26 | 54.33284 | -4.19553 | 5896 ft | 303 kts | 233° |
| 2026-05-05 22:26 | 54.31985 | -4.22362 | 5385 ft | 299 kts | 233° |
| 2026-05-05 22:26 | 54.30697 | -4.25139 | 4862 ft | 296 kts | 233° |
| 2026-05-05 22:26 | 54.29427 | -4.27879 | 4343 ft | 293 kts | 233° |
| 2026-05-05 22:27 | 54.28166 | -4.30595 | 3823 ft | 290 kts | 233° |
| 2026-05-05 22:27 | 54.26918 | -4.33277 | 3309 ft | 286 kts | 233° |
| 2026-05-05 22:27 | 54.25683 | -4.35925 | 2783 ft | 283 kts | 233° |
| 2026-05-05 22:27 | 54.24463 | -4.38542 | 2259 ft | 280 kts | 232° |
| 2026-05-05 22:28 | 54.23270 | -4.41103 | 2010 ft | 269 kts | 231° |
| 2026-05-05 22:28 | 54.22148 | -4.43500 | 2004 ft | 248 kts | 232° |
| 2026-05-05 22:28 | 54.21104 | -4.45728 | 2006 ft | 231 kts | 232° |
| 2026-05-05 22:28 | 54.20144 | -4.47779 | 2004 ft | 212 kts | 232° |
| 2026-05-05 22:29 | 54.19225 | -4.49745 | 2011 ft | 213 kts | 232° |
| 2026-05-05 22:29 | 54.18301 | -4.51719 | 2011 ft | 212 kts | 232° |
| 2026-05-05 22:29 | 54.17381 | -4.53680 | 2009 ft | 212 kts | 232° |
| 2026-05-05 22:29 | 54.16461 | -4.55638 | 2011 ft | 212 kts | 232° |
| 2026-05-05 22:30 | 54.15538 | -4.57600 | 2010 ft | 212 kts | 232° |
| 2026-05-05 22:30 | 54.14619 | -4.59558 | 2009 ft | 212 kts | 232° |
| 2026-05-05 22:30 | 54.13719 | -4.61552 | 2003 ft | 211 kts | 241° |
| 2026-05-05 22:30 | 54.13268 | -4.63900 | 2019 ft | 210 kts | 262° |
| 2026-05-05 22:31 | 54.13052 | -4.66349 | 2016 ft | 209 kts | 265° |
| 2026-05-05 22:31 | 54.12870 | -4.68799 | 2011 ft | 209 kts | 265° |
| 2026-05-05 22:31 | 54.12696 | -4.71203 | 2002 ft | 198 kts | 265° |
| 2026-05-05 22:31 | 54.12525 | -4.73529 | 2008 ft | 198 kts | 265° |
| 2026-05-05 22:32 | 54.12355 | -4.75854 | 2011 ft | 197 kts | 265° |
| 2026-05-05 22:32 | 54.12187 | -4.78142 | 2011 ft | 197 kts | 265° |
| 2026-05-05 22:32 | 54.12019 | -4.80456 | 2009 ft | 196 kts | 265° |
| 2026-05-05 22:32 | 54.11628 | -4.82677 | 2020 ft | 200 kts | 240° |
| 2026-05-05 22:33 | 54.10714 | -4.84453 | 2008 ft | 202 kts | 217° |
| 2026-05-05 22:33 | 54.09528 | -4.85738 | 2008 ft | 202 kts | 210° |
| 2026-05-05 22:33 | 54.08298 | -4.86902 | 2004 ft | 203 kts | 209° |
| 2026-05-05 22:33 | 54.07030 | -4.87939 | 2007 ft | 202 kts | 193° |
| 2026-05-05 22:34 | 54.05649 | -4.87790 | 2053 ft | 202 kts | 156° |
| 2026-05-05 22:34 | 54.04613 | -4.86292 | 2009 ft | 197 kts | 117° |
| 2026-05-05 22:34 | 54.04355 | -4.84086 | 2001 ft | 191 kts | 78° |
| 2026-05-05 22:34 | 54.04812 | -4.82010 | 1997 ft | 187 kts | 55° |
| 2026-05-05 22:35 | 54.05617 | -4.80266 | 2005 ft | 188 kts | 48° |
| 2026-05-05 22:35 | 54.06230 | -4.78300 | 2012 ft | 190 kts | 67° |
| 2026-05-05 22:35 | 54.06661 | -4.76175 | 2010 ft | 190 kts | 72° |
| 2026-05-05 22:35 | 54.06861 | -4.73944 | 1947 ft | 189 kts | 80° |
| 2026-05-05 22:36 | 54.07076 | -4.71846 | 1687 ft | 167 kts | 77° |
| 2026-05-05 22:36 | 54.07340 | -4.70091 | 1299 ft | 148 kts | 73° |
| 2026-05-05 22:36 | 54.07587 | -4.68406 | 911 ft | 141 kts | 77° |
| 2026-05-05 22:36 | 54.07707 | -4.67368 | 689 ft | 134 kts | 80° |
| 2026-05-05 22:37 | 54.07903 | -4.65852 | 380 ft | 125 kts | 79° |
| 2026-05-05 22:37 | 54.08079 | -4.64476 | 213 ft | 113 kts | 81° |
| 2026-05-05 22:37 | 54.08231 | -4.63222 | 44 ft | 99 kts | 82° |
| 2026-05-05 22:37 | 54.08310 | -4.62497 | 43 ft | 47 kts | 81° |
| 2026-05-05 22:38 | 54.08368 | -4.62018 | 42 ft | 31 kts | 77° |
| 2026-05-05 22:38 | 54.08414 | -4.61623 | 43 ft | 29 kts | 77° |
| 2026-05-05 22:38 | 54.08479 | -4.61434 | 42 ft | 14 kts | 0° |
| 2026-05-05 22:38 | 54.08533 | -4.61509 | 43 ft | 10 kts | 284° |
| 2026-05-05 22:39 | 54.08543 | -4.61638 | 44 ft | 21 kts | 276° |
| 2026-05-05 22:39 | 54.08576 | -4.62184 | 54 ft | 51 kts | 277° |
| 2026-05-05 22:39 | 54.08616 | -4.62770 | 51 ft | 47 kts | 276° |
| 2026-05-05 22:39 | 54.08619 | -4.63087 | 46 ft | 14 kts | 275° |
| 2026-05-05 22:40 | 54.08612 | -4.63199 | 44 ft | 6 kts | 227° |
| 2026-05-05 22:40 | 54.08603 | -4.63213 | 45 ft | 1 kts | 223° |
| 2026-05-05 22:40 | 54.08603 | -4.63214 | 45 ft | 0 kts | 223° |